Airfield :
LOGIN :

Register | Disclaimer

   EN    FR    IT 

 










Legend :    VFR   Marginal VFR   IFR   Intensive IFR   Very Intensive IFR
Visi :
Ceiling :
>= 8 km
>= 3000ft
5 to 8 km
1000 to 3000 ft
1500m to 5 km
500 to 1000 ft
800 to 1500m
200 to 500 ft
< 800m
< 200 ft
Symbols :   Thunderstorms  Fog  Heavy snow  Heavy precipitations  Wind > 20 kt
SIGMETs :     Misc.  Thunderstorms  Icing  Turbulence  Mountain Waves  Volcanic Ashes






- Airport Elevation : 55 ft


EGNO - Warton Preston

CURRENT METAR :
  • 280950Z 14015KT 6000 -RA BKN007 02/02 Q1000

EXPIRED METARs :
  • 280920Z 13013KT 6000 -RA BKN008 02/02 Q1001
  • 280850Z 14012KT 7000 -RA SCT010 BKN032 03/02 Q1003
  • 280820Z 15011KT 7000 -RA FEW009 SCT024 BKN030 03/02 Q1004
  • 280750Z 15011KT 9999 -RA SCT038 03/01 Q1005
  • 280720Z 15008KT 9999 -RA SCT038 03/01 Q1005

TAF TAF EGNO
Valid from the 28 at 09:00 until the 28 at 18:00 UTC


280759Z 2809/2818 15015G25KT 9999 SCT020
TEMPO 2809/2818 6000 RA BKN012
PROB30
TEMPO 2809/2818 4000 RADZ BKN006
BECMG 2816/2818 21018G28KT
ATIS : +44 1772 856 060



MET'MAP, your aeronautical weather chart ! - Copyright ORBIFLY December 2007 - Disclaimer

ORBIFLY MET'MAP TEAM :

Programming & Development : Alexandra Zaïnal
Concept & original design : Baudouin d'Aumeries
Assistance for programming : Marc-Olivier Méhu
Technical & hardware support : Manuel Goepfert

Contact : metmap@orbifly.com




SOURCES & CREDITS :

   NOAA